sensor_id;sensor_type;location;lat;lon;timestamp;pressure;altitude;pressure_sealevel;temperature;humidity
55466;BME280;41329;41.594;23.810;2024-01-11T00:00:48;96107.94;;;1.29;61.04
55466;BME280;41329;41.594;23.810;2024-01-11T00:03:14;96109.75;;;1.33;61.42
55466;BME280;41329;41.594;23.810;2024-01-11T00:05:40;96094.59;;;1.27;61.26
55466;BME280;41329;41.594;23.810;2024-01-11T00:08:07;96107.59;;;1.30;60.91
55466;BME280;41329;41.594;23.810;2024-01-11T00:10:32;96087.66;;;1.16;60.92
55466;BME280;41329;41.594;23.810;2024-01-11T00:12:57;96116.78;;;1.39;61.28
55466;BME280;41329;41.594;23.810;2024-01-11T00:15:23;96108.59;;;1.39;60.86
55466;BME280;41329;41.594;23.810;2024-01-11T00:17:48;96104.53;;;1.37;61.42
55466;BME280;41329;41.594;23.810;2024-01-11T00:20:14;96115.88;;;1.44;61.89
55466;BME280;41329;41.594;23.810;2024-01-11T00:22:39;96118.59;;;1.44;61.19
55466;BME280;41329;41.594;23.810;2024-01-11T00:25:05;96100.16;;;1.36;61.03
55466;BME280;41329;41.594;23.810;2024-01-11T00:27:30;96109.09;;;1.41;61.78
55466;BME280;41329;41.594;23.810;2024-01-11T00:29:56;96113.72;;;1.41;61.86
55466;BME280;41329;41.594;23.810;2024-01-11T00:32:21;96095.00;;;1.34;61.95
55466;BME280;41329;41.594;23.810;2024-01-11T00:34:47;96115.13;;;1.38;61.56
55466;BME280;41329;41.594;23.810;2024-01-11T00:37:13;96114.41;;;1.33;61.16
55466;BME280;41329;41.594;23.810;2024-01-11T00:39:38;96102.97;;;1.12;60.57
55466;BME280;41329;41.594;23.810;2024-01-11T00:42:04;96104.59;;;1.13;60.76
55466;BME280;41329;41.594;23.810;2024-01-11T00:44:29;96115.81;;;1.12;60.80
55466;BME280;41329;41.594;23.810;2024-01-11T00:46:55;96110.19;;;1.03;60.90
55466;BME280;41329;41.594;23.810;2024-01-11T00:49:20;96102.94;;;0.94;60.84
55466;BME280;41329;41.594;23.810;2024-01-11T00:51:47;96100.84;;;0.91;61.13
55466;BME280;41329;41.594;23.810;2024-01-11T00:54:12;96099.09;;;0.76;61.33
55466;BME280;41329;41.594;23.810;2024-01-11T00:56:37;96092.09;;;0.70;61.53
55466;BME280;41329;41.594;23.810;2024-01-11T00:59:03;96087.56;;;0.61;61.46
55466;BME280;41329;41.594;23.810;2024-01-11T01:01:28;96096.56;;;0.61;61.47
55466;BME280;41329;41.594;23.810;2024-01-11T01:03:54;96093.00;;;0.61;61.72
55466;BME280;41329;41.594;23.810;2024-01-11T01:06:19;96088.75;;;0.55;62.19
55466;BME280;41329;41.594;23.810;2024-01-11T01:08:44;96073.59;;;0.49;62.27
55466;BME280;41329;41.594;23.810;2024-01-11T01:11:10;96089.50;;;0.60;62.07
55466;BME280;41329;41.594;23.810;2024-01-11T01:13:35;96099.06;;;0.58;61.85
55466;BME280;41329;41.594;23.810;2024-01-11T01:16:01;96094.47;;;0.53;61.96
55466;BME280;41329;41.594;23.810;2024-01-11T01:18:26;96025.53;;;0.16;62.25
55466;BME280;41329;41.594;23.810;2024-01-11T01:20:52;96090.34;;;0.56;62.45
55466;BME280;41329;41.594;23.810;2024-01-11T01:23:18;96070.41;;;0.42;62.30
55466;BME280;41329;41.594;23.810;2024-01-11T01:25:43;96059.56;;;0.37;62.33
55466;BME280;41329;41.594;23.810;2024-01-11T01:28:09;96073.63;;;0.44;62.43
55466;BME280;41329;41.594;23.810;2024-01-11T01:30:35;96060.66;;;0.36;62.53
55466;BME280;41329;41.594;23.810;2024-01-11T01:33:00;96052.47;;;0.36;62.84
55466;BME280;41329;41.594;23.810;2024-01-11T01:35:26;96022.81;;;0.16;63.03
55466;BME280;41329;41.594;23.810;2024-01-11T01:37:51;96066.00;;;0.46;63.20
55466;BME280;41329;41.594;23.810;2024-01-11T01:40:16;96083.53;;;0.58;63.01
55466;BME280;41329;41.594;23.810;2024-01-11T01:42:43;96062.69;;;0.49;62.80
55466;BME280;41329;41.594;23.810;2024-01-11T01:45:09;96079.41;;;0.61;63.28
55466;BME280;41329;41.594;23.810;2024-01-11T01:47:35;96068.56;;;0.56;63.12
55466;BME280;41329;41.594;23.810;2024-01-11T01:50:01;96075.88;;;0.60;63.30
55466;BME280;41329;41.594;23.810;2024-01-11T01:52:26;96079.41;;;0.61;63.76
55466;BME280;41329;41.594;23.810;2024-01-11T01:54:52;96068.06;;;0.54;63.88
55466;BME280;41329;41.594;23.810;2024-01-11T01:57:19;96065.84;;;0.56;63.59
55466;BME280;41329;41.594;23.810;2024-01-11T01:59:45;96064.25;;;0.55;63.49
55466;BME280;41329;41.594;23.810;2024-01-11T02:02:13;96063.75;;;0.53;62.98
55466;BME280;41329;41.594;23.810;2024-01-11T02:04:39;96049.09;;;0.49;63.39
55466;BME280;41329;41.594;23.810;2024-01-11T02:07:06;96036.91;;;0.41;63.90
55466;BME280;41329;41.594;23.810;2024-01-11T02:09:32;96047.91;;;0.55;63.65
55466;BME280;41329;41.594;23.810;2024-01-11T02:11:59;96037.66;;;0.47;63.38
55466;BME280;41329;41.594;23.810;2024-01-11T02:14:26;96032.50;;;0.45;63.21
55466;BME280;41329;41.594;23.810;2024-01-11T02:16:51;96018.75;;;0.37;63.13
55466;BME280;41329;41.594;23.810;2024-01-11T02:19:19;96039.00;;;0.49;63.43
55466;BME280;41329;41.594;23.810;2024-01-11T02:21:46;96032.84;;;0.39;63.06
55466;BME280;41329;41.594;23.810;2024-01-11T02:24:13;96026.63;;;0.38;63.08
55466;BME280;41329;41.594;23.810;2024-01-11T02:26:58;96026.16;;;0.31;63.00
55466;BME280;41329;41.594;23.810;2024-01-11T02:29:25;96029.16;;;0.30;63.00
55466;BME280;41329;41.594;23.810;2024-01-11T02:31:50;96020.78;;;0.26;63.08
55466;BME280;41329;41.594;23.810;2024-01-11T02:34:16;96020.19;;;0.29;63.72
55466;BME280;41329;41.594;23.810;2024-01-11T02:36:42;96026.97;;;0.32;63.69
55466;BME280;41329;41.594;23.810;2024-01-11T02:39:08;96030.56;;;0.27;63.57
55466;BME280;41329;41.594;23.810;2024-01-11T02:41:34;96028.66;;;0.28;63.34
55466;BME280;41329;41.594;23.810;2024-01-11T02:44:01;96016.13;;;0.27;63.42
55466;BME280;41329;41.594;23.810;2024-01-11T02:46:26;95963.75;;;-0.08;63.45
55466;BME280;41329;41.594;23.810;2024-01-11T02:48:51;96021.53;;;0.32;63.28
55466;BME280;41329;41.594;23.810;2024-01-11T02:51:17;96018.81;;;0.32;63.09
55466;BME280;41329;41.594;23.810;2024-01-11T02:53:43;96000.16;;;0.20;63.03
55466;BME280;41329;41.594;23.810;2024-01-11T02:56:08;95994.19;;;0.18;62.79
55466;BME280;41329;41.594;23.810;2024-01-11T02:58:33;96006.63;;;0.24;62.42
55466;BME280;41329;41.594;23.810;2024-01-11T03:00:59;96013.41;;;0.27;63.09
55466;BME280;41329;41.594;23.810;2024-01-11T03:03:24;95981.25;;;0.10;63.49
55466;BME280;41329;41.594;23.810;2024-01-11T03:05:50;96010.81;;;0.17;63.89
55466;BME280;41329;41.594;23.810;2024-01-11T03:08:15;95966.81;;;-0.14;63.99
55466;BME280;41329;41.594;23.810;2024-01-11T03:10:40;95979.78;;;-0.06;64.14
55466;BME280;41329;41.594;23.810;2024-01-11T03:13:08;96005.44;;;-0.12;64.39
55466;BME280;41329;41.594;23.810;2024-01-11T03:15:33;95959.06;;;-0.49;64.89
55466;BME280;41329;41.594;23.810;2024-01-11T03:17:59;95999.81;;;-0.21;64.74
55466;BME280;41329;41.594;23.810;2024-01-11T03:20:24;96000.84;;;-0.17;64.96
55466;BME280;41329;41.594;23.810;2024-01-11T03:22:50;96005.53;;;-0.22;64.88
55466;BME280;41329;41.594;23.810;2024-01-11T03:25:19;95984.69;;;-0.32;64.85
55466;BME280;41329;41.594;23.810;2024-01-11T03:27:44;95995.69;;;-0.18;65.01
55466;BME280;41329;41.594;23.810;2024-01-11T03:30:11;96008.06;;;-0.31;65.00
55466;BME280;41329;41.594;23.810;2024-01-11T03:32:36;96000.53;;;-0.39;65.19
55466;BME280;41329;41.594;23.810;2024-01-11T03:35:05;95933.25;;;-0.80;65.44
55466;BME280;41329;41.594;23.810;2024-01-11T03:37:31;95996.53;;;-0.46;65.49
55466;BME280;41329;41.594;23.810;2024-01-11T03:39:56;95978.41;;;-0.56;65.74
55466;BME280;41329;41.594;23.810;2024-01-11T03:42:22;95993.63;;;-0.55;66.03
55466;BME280;41329;41.594;23.810;2024-01-11T03:44:48;95993.91;;;-0.56;66.23
55466;BME280;41329;41.594;23.810;2024-01-11T03:47:14;95996.00;;;-0.48;66.70
55466;BME280;41329;41.594;23.810;2024-01-11T03:49:39;95984.84;;;-0.47;67.30
55466;BME280;41329;41.594;23.810;2024-01-11T03:52:05;95983.97;;;-0.42;67.41
55466;BME280;41329;41.594;23.810;2024-01-11T03:54:31;95980.19;;;-0.41;67.83
55466;BME280;41329;41.594;23.810;2024-01-11T03:56:57;95979.59;;;-0.38;67.60
55466;BME280;41329;41.594;23.810;2024-01-11T03:59:22;95974.91;;;-0.33;67.42
55466;BME280;41329;41.594;23.810;2024-01-11T04:01:48;95954.38;;;-0.44;66.65
55466;BME280;41329;41.594;23.810;2024-01-11T04:04:13;95947.63;;;-0.46;65.75
55466;BME280;41329;41.594;23.810;2024-01-11T04:06:39;95964.31;;;-0.34;65.17
55466;BME280;41329;41.594;23.810;2024-01-11T04:09:04;95968.19;;;-0.40;64.55
55466;BME280;41329;41.594;23.810;2024-01-11T04:11:30;95968.25;;;-0.45;64.69
55466;BME280;41329;41.594;23.810;2024-01-11T04:13:55;95963.16;;;-0.52;65.05
55466;BME280;41329;41.594;23.810;2024-01-11T04:16:21;95968.59;;;-0.52;64.72
55466;BME280;41329;41.594;23.810;2024-01-11T04:18:46;95964.78;;;-0.51;64.75
55466;BME280;41329;41.594;23.810;2024-01-11T04:21:22;95957.44;;;-0.50;64.53
55466;BME280;41329;41.594;23.810;2024-01-11T04:23:48;95958.25;;;-0.50;64.75
55466;BME280;41329;41.594;23.810;2024-01-11T04:26:13;95970.50;;;-0.52;64.56
55466;BME280;41329;41.594;23.810;2024-01-11T04:28:38;95975.94;;;-0.52;64.23
55466;BME280;41329;41.594;23.810;2024-01-11T04:31:04;95937.50;;;-0.69;63.99
55466;BME280;41329;41.594;23.810;2024-01-11T04:33:31;95946.78;;;-0.70;64.11
55466;BME280;41329;41.594;23.810;2024-01-11T04:35:56;95961.34;;;-0.61;64.40
55466;BME280;41329;41.594;23.810;2024-01-11T04:38:21;95971.44;;;-0.67;64.48
55466;BME280;41329;41.594;23.810;2024-01-11T04:40:47;95965.53;;;-0.74;64.59
55466;BME280;41329;41.594;23.810;2024-01-11T04:43:12;95953.72;;;-0.88;64.93
55466;BME280;41329;41.594;23.810;2024-01-11T04:45:38;95977.53;;;-0.80;65.42
55466;BME280;41329;41.594;23.810;2024-01-11T04:48:03;95950.22;;;-0.93;65.67
55466;BME280;41329;41.594;23.810;2024-01-11T04:50:29;95954.03;;;-0.94;65.93
55466;BME280;41329;41.594;23.810;2024-01-11T04:52:54;95979.75;;;-0.82;66.13
55466;BME280;41329;41.594;23.810;2024-01-11T04:55:20;95987.63;;;-0.85;66.30
55466;BME280;41329;41.594;23.810;2024-01-11T04:57:45;95958.66;;;-0.95;66.63
55466;BME280;41329;41.594;23.810;2024-01-11T05:00:11;95953.47;;;-0.91;66.67
55466;BME280;41329;41.594;23.810;2024-01-11T05:02:36;95920.00;;;-1.15;66.55
55466;BME280;41329;41.594;23.810;2024-01-11T05:05:02;95981.31;;;-0.76;66.42
55466;BME280;41329;41.594;23.810;2024-01-11T05:07:28;95957.53;;;-0.89;66.60
55466;BME280;41329;41.594;23.810;2024-01-11T05:09:53;95971.84;;;-0.78;66.42
55466;BME280;41329;41.594;23.810;2024-01-11T05:12:19;95974.00;;;-0.75;66.29
55466;BME280;41329;41.594;23.810;2024-01-11T05:14:44;95961.28;;;-0.85;66.00
55466;BME280;41329;41.594;23.810;2024-01-11T05:17:10;95977.75;;;-0.71;65.85
55466;BME280;41329;41.594;23.810;2024-01-11T05:19:35;95968.78;;;-0.72;65.87
55466;BME280;41329;41.594;23.810;2024-01-11T05:22:01;95953.91;;;-0.79;65.75
55466;BME280;41329;41.594;23.810;2024-01-11T05:24:26;95944.13;;;-0.80;65.85
55466;BME280;41329;41.594;23.810;2024-01-11T05:26:52;95953.03;;;-0.75;66.13
55466;BME280;41329;41.594;23.810;2024-01-11T05:29:17;95969.22;;;-0.60;65.97
55466;BME280;41329;41.594;23.810;2024-01-11T05:31:42;95961.63;;;-0.63;65.83
55466;BME280;41329;41.594;23.810;2024-01-11T05:34:08;95962.91;;;-0.55;65.74
55466;BME280;41329;41.594;23.810;2024-01-11T05:36:37;95942.09;;;-0.65;65.73
55466;BME280;41329;41.594;23.810;2024-01-11T05:39:02;95964.78;;;-0.51;65.87
55466;BME280;41329;41.594;23.810;2024-01-11T05:41:28;95956.44;;;-0.59;65.67
55466;BME280;41329;41.594;23.810;2024-01-11T05:43:53;95938.34;;;-0.69;65.32
55466;BME280;41329;41.594;23.810;2024-01-11T05:46:19;95957.25;;;-0.59;65.37
55466;BME280;41329;41.594;23.810;2024-01-11T05:48:45;95965.63;;;-0.55;65.44
55466;BME280;41329;41.594;23.810;2024-01-11T05:51:10;95949.72;;;-0.67;65.06
55466;BME280;41329;41.594;23.810;2024-01-11T05:53:36;95927.31;;;-0.82;65.02
55466;BME280;41329;41.594;23.810;2024-01-11T05:56:02;95956.03;;;-0.71;64.93
55466;BME280;41329;41.594;23.810;2024-01-11T05:58:28;95949.00;;;-0.77;64.94
55466;BME280;41329;41.594;23.810;2024-01-11T06:00:53;95949.22;;;-0.74;65.42
55466;BME280;41329;41.594;23.810;2024-01-11T06:03:20;95935.41;;;-0.77;65.66
55466;BME280;41329;41.594;23.810;2024-01-11T06:05:46;95948.38;;;-0.69;66.18
55466;BME280;41329;41.594;23.810;2024-01-11T06:08:11;95944.81;;;-0.65;66.11
55466;BME280;41329;41.594;23.810;2024-01-11T06:10:37;95919.94;;;-0.77;66.20
55466;BME280;41329;41.594;23.810;2024-01-11T06:13:03;95932.03;;;-0.64;66.44
55466;BME280;41329;41.594;23.810;2024-01-11T06:15:28;95930.84;;;-0.53;66.49
55466;BME280;41329;41.594;23.810;2024-01-11T06:17:54;95940.03;;;-0.49;66.25
55466;BME280;41329;41.594;23.810;2024-01-11T06:20:19;95879.53;;;-0.83;66.11
55466;BME280;41329;41.594;23.810;2024-01-11T06:22:45;95939.69;;;-0.43;66.14
55466;BME280;41329;41.594;23.810;2024-01-11T06:25:10;95931.88;;;-0.49;66.04
55466;BME280;41329;41.594;23.810;2024-01-11T06:27:35;95901.03;;;-0.63;65.61
55466;BME280;41329;41.594;23.810;2024-01-11T06:30:01;95943.75;;;-0.40;65.88
55466;BME280;41329;41.594;23.810;2024-01-11T06:32:26;95931.63;;;-0.53;65.98
55466;BME280;41329;41.594;23.810;2024-01-11T06:34:52;95943.94;;;-0.60;65.93
55466;BME280;41329;41.594;23.810;2024-01-11T06:37:17;95920.22;;;-0.78;66.47
55466;BME280;41329;41.594;23.810;2024-01-11T06:39:42;95931.56;;;-0.71;67.20
55466;BME280;41329;41.594;23.810;2024-01-11T06:42:08;95941.50;;;-0.62;67.47
55466;BME280;41329;41.594;23.810;2024-01-11T06:44:33;95948.78;;;-0.81;66.82
55466;BME280;41329;41.594;23.810;2024-01-11T06:46:59;95927.50;;;-1.02;67.25
55466;BME280;41329;41.594;23.810;2024-01-11T06:49:26;95951.47;;;-1.09;67.86
55466;BME280;41329;41.594;23.810;2024-01-11T06:51:52;95952.22;;;-1.04;68.33
55466;BME280;41329;41.594;23.810;2024-01-11T06:54:17;95933.03;;;-1.12;68.54
55466;BME280;41329;41.594;23.810;2024-01-11T06:56:43;95917.72;;;-1.32;68.77
55466;BME280;41329;41.594;23.810;2024-01-11T06:59:08;95948.06;;;-1.30;69.24
55466;BME280;41329;41.594;23.810;2024-01-11T07:01:34;95940.47;;;-1.28;69.54
55466;BME280;41329;41.594;23.810;2024-01-11T07:03:59;95924.69;;;-1.26;69.79
55466;BME280;41329;41.594;23.810;2024-01-11T07:06:24;95936.19;;;-1.05;70.25
55466;BME280;41329;41.594;23.810;2024-01-11T07:08:50;95923.72;;;-1.06;70.44
55466;BME280;41329;41.594;23.810;2024-01-11T07:11:15;95949.28;;;-0.79;70.59
55466;BME280;41329;41.594;23.810;2024-01-11T07:13:41;95944.91;;;-0.75;70.89
55466;BME280;41329;41.594;23.810;2024-01-11T07:16:06;95949.16;;;-0.64;71.03
55466;BME280;41329;41.594;23.810;2024-01-11T07:18:32;95941.50;;;-0.62;71.18
55466;BME280;41329;41.594;23.810;2024-01-11T07:20:59;95944.19;;;-0.57;71.05
55466;BME280;41329;41.594;23.810;2024-01-11T07:23:24;95932.81;;;-0.35;71.47
55466;BME280;41329;41.594;23.810;2024-01-11T07:25:50;95933.44;;;-0.20;71.53
55466;BME280;41329;41.594;23.810;2024-01-11T07:28:15;95924.28;;;-0.05;71.32
55466;BME280;41329;41.594;23.810;2024-01-11T07:30:42;95937.56;;;0.20;71.53
55466;BME280;41329;41.594;23.810;2024-01-11T07:33:08;95931.34;;;0.38;71.58
55466;BME280;41329;41.594;23.810;2024-01-11T07:35:34;95922.16;;;0.53;71.49
55466;BME280;41329;41.594;23.810;2024-01-11T07:38:00;95934.22;;;0.47;70.27
55466;BME280;41329;41.594;23.810;2024-01-11T07:40:26;95927.09;;;0.51;70.28
55466;BME280;41329;41.594;23.810;2024-01-11T07:42:51;95907.28;;;0.64;70.53
55466;BME280;41329;41.594;23.810;2024-01-11T07:45:17;95919.00;;;0.64;70.06
55466;BME280;41329;41.594;23.810;2024-01-11T07:47:42;95893.97;;;0.44;70.00
55466;BME280;41329;41.594;23.810;2024-01-11T07:50:08;95918.34;;;0.54;70.00
55466;BME280;41329;41.594;23.810;2024-01-11T07:52:38;95900.72;;;0.46;69.40
55466;BME280;41329;41.594;23.810;2024-01-11T07:55:04;95909.13;;;0.68;69.16
55466;BME280;41329;41.594;23.810;2024-01-11T07:57:36;95924.47;;;0.78;68.96
55466;BME280;41329;41.594;23.810;2024-01-11T08:00:03;95898.00;;;0.65;68.67
55466;BME280;41329;41.594;23.810;2024-01-11T08:02:29;95915.88;;;0.89;68.91
55466;BME280;41329;41.594;23.810;2024-01-11T08:04:55;95899.00;;;0.87;69.01
55466;BME280;41329;41.594;23.810;2024-01-11T08:07:20;95909.28;;;1.09;69.05
55466;BME280;41329;41.594;23.810;2024-01-11T08:09:46;95904.56;;;1.14;68.18
55466;BME280;41329;41.594;23.810;2024-01-11T08:12:12;95889.03;;;0.96;68.27
55466;BME280;41329;41.594;23.810;2024-01-11T08:14:38;95900.53;;;1.12;68.78
55466;BME280;41329;41.594;23.810;2024-01-11T08:17:04;95902.84;;;1.18;68.35
55466;BME280;41329;41.594;23.810;2024-01-11T08:19:31;95902.53;;;1.20;68.27
55466;BME280;41329;41.594;23.810;2024-01-11T08:21:56;95899.94;;;1.28;68.97
55466;BME280;41329;41.594;23.810;2024-01-11T08:24:22;95874.09;;;1.26;68.67
55466;BME280;41329;41.594;23.810;2024-01-11T08:26:48;95891.91;;;1.50;68.22
55466;BME280;41329;41.594;23.810;2024-01-11T08:29:13;95893.81;;;1.63;68.56
55466;BME280;41329;41.594;23.810;2024-01-11T08:31:39;95885.16;;;1.75;68.15
55466;BME280;41329;41.594;23.810;2024-01-11T08:34:04;95885.56;;;1.82;67.98
55466;BME280;41329;41.594;23.810;2024-01-11T08:36:31;95877.38;;;1.82;67.77
55466;BME280;41329;41.594;23.810;2024-01-11T08:38:59;95883.44;;;1.92;66.85
55466;BME280;41329;41.594;23.810;2024-01-11T08:41:25;95882.63;;;1.92;67.53
55466;BME280;41329;41.594;23.810;2024-01-11T08:43:50;95876.25;;;1.96;67.31
55466;BME280;41329;41.594;23.810;2024-01-11T08:46:24;95873.41;;;2.01;66.36
55466;BME280;41329;41.594;23.810;2024-01-11T08:48:49;95859.38;;;1.94;66.12
55466;BME280;41329;41.594;23.810;2024-01-11T08:51:15;95865.63;;;2.08;67.46
55466;BME280;41329;41.594;23.810;2024-01-11T08:53:40;95870.38;;;2.16;67.43
55466;BME280;41329;41.594;23.810;2024-01-11T08:56:06;95861.41;;;2.02;67.98
55466;BME280;41329;41.594;23.810;2024-01-11T08:58:31;95831.28;;;2.07;66.02
55466;BME280;41329;41.594;23.810;2024-01-11T09:00:57;95850.25;;;2.26;66.80
55466;BME280;41329;41.594;23.810;2024-01-11T09:03:22;95822.13;;;2.25;66.88
55466;BME280;41329;41.594;23.810;2024-01-11T09:05:48;95820.84;;;2.45;66.81
55466;BME280;41329;41.594;23.810;2024-01-11T09:08:13;95833.34;;;2.59;66.98
55466;BME280;41329;41.594;23.810;2024-01-11T09:10:38;95816.91;;;2.73;66.33
55466;BME280;41329;41.594;23.810;2024-01-11T09:13:04;95816.63;;;2.83;66.41
55466;BME280;41329;41.594;23.810;2024-01-11T09:15:29;95798.47;;;2.78;65.02
55466;BME280;41329;41.594;23.810;2024-01-11T09:17:55;95785.38;;;2.97;64.82
55466;BME280;41329;41.594;23.810;2024-01-11T09:20:20;95806.25;;;3.15;65.87
55466;BME280;41329;41.594;23.810;2024-01-11T09:22:46;95779.44;;;3.26;65.56
55466;BME280;41329;41.594;23.810;2024-01-11T09:25:11;95788.06;;;3.50;65.12
55466;BME280;41329;41.594;23.810;2024-01-11T09:27:37;95790.84;;;3.67;64.48
55466;BME280;41329;41.594;23.810;2024-01-11T09:30:02;95771.38;;;3.68;62.37
55466;BME280;41329;41.594;23.810;2024-01-11T09:32:29;95755.94;;;3.64;62.50
55466;BME280;41329;41.594;23.810;2024-01-11T09:34:56;95746.91;;;3.63;62.40
55466;BME280;41329;41.594;23.810;2024-01-11T09:37:21;95759.53;;;3.98;62.67
55466;BME280;41329;41.594;23.810;2024-01-11T09:39:46;95757.44;;;3.95;60.13
55466;BME280;41329;41.594;23.810;2024-01-11T09:42:12;95752.16;;;4.16;61.50
55466;BME280;41329;41.594;23.810;2024-01-11T09:44:38;95742.81;;;4.34;60.35
55466;BME280;41329;41.594;23.810;2024-01-11T09:47:04;95733.63;;;4.38;57.92
55466;BME280;41329;41.594;23.810;2024-01-11T09:49:32;95739.44;;;4.45;58.02
55466;BME280;41329;41.594;23.810;2024-01-11T09:51:59;95718.31;;;4.46;56.79
55466;BME280;41329;41.594;23.810;2024-01-11T09:54:26;95727.63;;;4.53;56.21
55466;BME280;41329;41.594;23.810;2024-01-11T09:56:53;95709.91;;;4.59;58.00
55466;BME280;41329;41.594;23.810;2024-01-11T09:59:20;95703.91;;;4.74;57.92
55466;BME280;41329;41.594;23.810;2024-01-11T10:01:49;95711.81;;;4.84;56.48
55466;BME280;41329;41.594;23.810;2024-01-11T10:04:15;95709.06;;;4.76;56.47
55466;BME280;41329;41.594;23.810;2024-01-11T10:06:41;95702.59;;;4.89;57.24
55466;BME280;41329;41.594;23.810;2024-01-11T10:09:07;95700.59;;;5.06;56.03
55466;BME280;41329;41.594;23.810;2024-01-11T10:11:33;95696.19;;;5.22;54.90
55466;BME280;41329;41.594;23.810;2024-01-11T10:13:59;95699.88;;;5.26;53.94
55466;BME280;41329;41.594;23.810;2024-01-11T10:16:27;95685.97;;;5.31;53.70
55466;BME280;41329;41.594;23.810;2024-01-11T10:18:56;95688.00;;;5.51;55.84
55466;BME280;41329;41.594;23.810;2024-01-11T10:21:23;95675.53;;;5.54;52.21
55466;BME280;41329;41.594;23.810;2024-01-11T10:23:49;95676.78;;;5.65;53.36
55466;BME280;41329;41.594;23.810;2024-01-11T10:26:16;95659.53;;;5.56;52.31
55466;BME280;41329;41.594;23.810;2024-01-11T10:28:45;95648.03;;;5.62;53.79
55466;BME280;41329;41.594;23.810;2024-01-11T10:31:10;95643.63;;;5.70;53.52
55466;BME280;41329;41.594;23.810;2024-01-11T10:33:35;95650.97;;;5.86;53.00
55466;BME280;41329;41.594;23.810;2024-01-11T10:36:01;95648.91;;;6.04;51.99
55466;BME280;41329;41.594;23.810;2024-01-11T10:38:30;95585.84;;;5.66;49.98
55466;BME280;41329;41.594;23.810;2024-01-11T10:40:59;95625.38;;;5.94;49.77
55466;BME280;41329;41.594;23.810;2024-01-11T10:43:26;95626.00;;;6.00;49.18
55466;BME280;41329;41.594;23.810;2024-01-11T10:45:54;95627.38;;;6.06;48.57
55466;BME280;41329;41.594;23.810;2024-01-11T10:48:25;95599.25;;;6.09;51.57
55466;BME280;41329;41.594;23.810;2024-01-11T10:50:54;95595.78;;;6.32;50.67
55466;BME280;41329;41.594;23.810;2024-01-11T10:53:44;95616.22;;;6.43;47.12
55466;BME280;41329;41.594;23.810;2024-01-11T10:56:13;95607.63;;;6.12;47.96
55466;BME280;41329;41.594;23.810;2024-01-11T10:58:42;95603.66;;;6.22;49.22
55466;BME280;41329;41.594;23.810;2024-01-11T11:01:09;95581.13;;;6.28;48.06
55466;BME280;41329;41.594;23.810;2024-01-11T11:03:36;95595.53;;;6.25;47.63
55466;BME280;41329;41.594;23.810;2024-01-11T11:06:04;95590.84;;;6.26;49.70
55466;BME280;41329;41.594;23.810;2024-01-11T11:08:31;95584.91;;;6.36;49.27
55466;BME280;41329;41.594;23.810;2024-01-11T11:10:57;95578.78;;;6.51;49.63
55466;BME280;41329;41.594;23.810;2024-01-11T11:13:24;95569.34;;;6.73;50.04
55466;BME280;41329;41.594;23.810;2024-01-11T11:15:49;95567.84;;;6.99;49.55
55466;BME280;41329;41.594;23.810;2024-01-11T11:18:15;95560.75;;;7.22;48.77
55466;BME280;41329;41.594;23.810;2024-01-11T11:20:42;95551.69;;;7.22;49.19
55466;BME280;41329;41.594;23.810;2024-01-11T11:23:08;95530.13;;;7.36;50.15
55466;BME280;41329;41.594;23.810;2024-01-11T11:25:39;95534.03;;;7.74;50.09
55466;BME280;41329;41.594;23.810;2024-01-11T11:28:05;95530.06;;;7.99;50.40
55466;BME280;41329;41.594;23.810;2024-01-11T11:30:36;95522.50;;;7.96;46.23
55466;BME280;41329;41.594;23.810;2024-01-11T11:33:20;95513.97;;;7.74;45.52
55466;BME280;41329;41.594;23.810;2024-01-11T11:35:47;95513.03;;;7.82;47.96
55466;BME280;41329;41.594;23.810;2024-01-11T11:38:23;95494.97;;;7.69;46.87
55466;BME280;41329;41.594;23.810;2024-01-11T11:40:52;95502.66;;;7.91;49.14
55466;BME280;41329;41.594;23.810;2024-01-11T11:43:20;95509.13;;;8.10;47.94
55466;BME280;41329;41.594;23.810;2024-01-11T11:45:46;95489.03;;;8.10;47.47
55466;BME280;41329;41.594;23.810;2024-01-11T11:51:11;95489.97;;;8.02;44.72
55466;BME280;41329;41.594;23.810;2024-01-11T11:53:38;95473.66;;;8.09;46.05
55466;BME280;41329;41.594;23.810;2024-01-11T11:56:05;95465.00;;;8.22;46.95
55466;BME280;41329;41.594;23.810;2024-01-11T11:58:32;95468.47;;;8.35;44.38
55466;BME280;41329;41.594;23.810;2024-01-11T12:00:59;95456.47;;;8.43;46.02
55466;BME280;41329;41.594;23.810;2024-01-11T12:03:38;95440.97;;;8.23;45.71
55466;BME280;41329;41.594;23.810;2024-01-11T12:06:07;95449.09;;;8.47;45.37
55466;BME280;41329;41.594;23.810;2024-01-11T12:08:34;95437.88;;;8.71;46.26
55466;BME280;41329;41.594;23.810;2024-01-11T12:11:00;95404.44;;;8.57;44.97
55466;BME280;41329;41.594;23.810;2024-01-11T12:13:26;95427.22;;;8.69;43.94
55466;BME280;41329;41.594;23.810;2024-01-11T12:15:52;95408.50;;;8.78;45.22
55466;BME280;41329;41.594;23.810;2024-01-11T12:18:17;95404.03;;;8.89;42.28
55466;BME280;41329;41.594;23.810;2024-01-11T12:20:44;95413.63;;;8.95;43.40
55466;BME280;41329;41.594;23.810;2024-01-11T12:23:09;95413.03;;;9.21;43.16
55466;BME280;41329;41.594;23.810;2024-01-11T12:25:35;95392.19;;;9.23;42.99
55466;BME280;41329;41.594;23.810;2024-01-11T12:28:01;95398.88;;;9.41;43.26
55466;BME280;41329;41.594;23.810;2024-01-11T12:30:27;95401.72;;;9.64;42.00
55466;BME280;41329;41.594;23.810;2024-01-11T12:32:56;95379.63;;;9.64;41.82
55466;BME280;41329;41.594;23.810;2024-01-11T12:35:22;95394.38;;;9.71;41.59
55466;BME280;41329;41.594;23.810;2024-01-11T12:38:02;95338.78;;;9.35;40.63
55466;BME280;41329;41.594;23.810;2024-01-11T12:40:34;95383.28;;;9.68;41.84
55466;BME280;41329;41.594;23.810;2024-01-11T12:43:00;95380.47;;;9.87;41.69
55466;BME280;41329;41.594;23.810;2024-01-11T12:45:26;95363.09;;;9.86;40.03
55466;BME280;41329;41.594;23.810;2024-01-11T12:47:53;95374.13;;;10.05;39.85
55466;BME280;41329;41.594;23.810;2024-01-11T12:50:20;95359.38;;;10.17;40.75
55466;BME280;41329;41.594;23.810;2024-01-11T12:52:46;95368.25;;;10.29;41.18
55466;BME280;41329;41.594;23.810;2024-01-11T12:55:18;95366.72;;;10.32;41.34